createdAt,value
2019-03-08T00:04:18.717Z,8.67
2019-03-08T00:06:48.357Z,8.67
2019-03-08T00:09:17.809Z,8.59
2019-03-08T00:11:47.167Z,8.59
2019-03-08T00:14:36.136Z,8.60
2019-03-08T00:17:05.731Z,8.59
2019-03-08T00:19:35.371Z,8.59
2019-03-08T00:22:15.043Z,8.62
2019-03-08T00:24:44.844Z,8.62
2019-03-08T00:27:14.536Z,8.63
2019-03-08T00:29:44.176Z,8.64
2019-03-08T00:32:25.921Z,8.63
2019-03-08T00:34:55.525Z,8.63
2019-03-08T00:37:26.459Z,8.60
2019-03-08T00:39:55.967Z,8.57
2019-03-08T00:42:26.602Z,8.57
2019-03-08T00:44:55.941Z,8.58
2019-03-08T00:47:26.313Z,8.60
2019-03-08T00:50:16.494Z,8.61
2019-03-08T00:53:05.212Z,8.50
2019-03-08T00:55:34.551Z,8.50
2019-03-08T00:58:05.517Z,8.45
2019-03-08T01:00:35.160Z,8.41
2019-03-08T01:06:38.902Z,8.33
2019-03-08T01:09:38.872Z,8.30
2019-03-08T01:12:19.224Z,8.31
2019-03-08T01:14:48.873Z,8.30
2019-03-08T01:23:42.182Z,8.26
2019-03-08T01:26:11.864Z,8.27
2019-03-08T01:28:41.778Z,8.25
2019-03-08T01:31:11.172Z,8.26
2019-03-08T01:33:40.514Z,8.29
2019-03-08T01:36:10.146Z,8.34
2019-03-08T01:38:39.503Z,8.34
2019-03-08T01:41:28.478Z,8.39
2019-03-08T01:44:10.278Z,8.45
2019-03-08T01:46:40.225Z,8.45
2019-03-08T01:49:09.575Z,8.43
2019-03-08T01:51:39.236Z,8.42
2019-03-08T01:54:08.586Z,8.40
2019-03-08T01:56:38.334Z,8.41
2019-03-08T01:59:07.982Z,8.42
2019-03-08T02:01:37.640Z,8.46
2019-03-08T02:04:28.364Z,8.42
2019-03-08T02:06:57.785Z,8.43
2019-03-08T02:09:27.434Z,8.42
2019-03-08T02:11:56.791Z,8.41
2019-03-08T02:14:33.707Z,8.38
2019-03-08T02:17:22.618Z,8.25
2019-03-08T02:20:01.984Z,8.17
2019-03-08T02:22:31.582Z,8.17
2019-03-08T02:25:01.233Z,7.93
2019-03-08T02:27:30.573Z,7.93
2019-03-08T02:30:02.531Z,7.91
2019-03-08T02:32:32.168Z,7.88
2019-03-08T02:35:48.483Z,7.88
2019-03-08T02:38:17.848Z,7.89
2019-03-08T02:41:06.391Z,7.90
2019-03-08T02:43:36.038Z,7.91
2019-03-08T02:46:24.842Z,7.90
2019-03-08T02:49:06.479Z,7.96
2019-03-08T02:51:35.919Z,7.96
2019-03-08T02:54:05.482Z,7.99
2019-03-08T02:56:34.838Z,7.99
2019-03-08T02:59:16.334Z,7.98
2019-03-08T03:01:45.686Z,7.98
2019-03-08T03:07:30.791Z,7.97
2019-03-08T03:10:00.736Z,7.96
2019-03-08T03:12:42.329Z,7.96
2019-03-08T03:15:31.038Z,7.95
2019-03-08T03:18:12.819Z,7.89
2019-03-08T03:20:42.607Z,7.89
2019-03-08T03:26:05.809Z,7.94
2019-03-08T03:28:35.464Z,7.95
2019-03-08T03:31:04.822Z,7.92
2019-03-08T03:33:34.807Z,7.94
2019-03-08T03:36:04.422Z,7.93
2019-03-08T03:38:40.926Z,7.91
2019-03-08T03:41:11.870Z,7.89
2019-03-08T03:43:41.515Z,7.86
2019-03-08T03:46:11.123Z,7.86
2019-03-08T03:48:40.765Z,7.83
2019-03-08T03:51:10.135Z,7.81
2019-03-08T03:53:39.856Z,7.81
2019-03-08T03:56:09.502Z,7.82
2019-03-08T03:58:38.875Z,7.83
2019-03-08T04:01:27.660Z,7.79
2019-03-08T04:03:57.004Z,7.76
2019-03-08T04:06:27.091Z,7.73
2019-03-08T04:08:56.762Z,7.73
2019-03-08T04:11:26.117Z,7.73
2019-03-08T04:13:56.081Z,7.76
2019-03-08T04:16:26.714Z,7.76
2019-03-08T04:18:56.133Z,7.76
2019-03-08T04:21:27.374Z,7.76
2019-03-08T04:23:56.870Z,7.79
2019-03-08T04:26:26.224Z,7.79
2019-03-08T04:29:15.108Z,7.82
2019-03-08T04:31:44.747Z,7.82
2019-03-08T04:34:14.087Z,7.83
2019-03-08T04:36:43.453Z,7.85
2019-03-08T04:39:32.230Z,7.86
2019-03-08T04:42:01.920Z,7.86
2019-03-08T04:44:31.265Z,7.88
2019-03-08T04:47:10.674Z,7.85
2019-03-08T04:49:52.632Z,7.85
2019-03-08T04:52:34.056Z,7.83
2019-03-08T04:58:18.855Z,7.87
2019-03-08T05:00:48.535Z,7.87
2019-03-08T05:03:28.354Z,7.91
2019-03-08T05:05:57.981Z,7.93
2019-03-08T05:08:27.342Z,7.93
2019-03-08T05:11:16.220Z,7.79
2019-03-08T05:13:45.868Z,7.83
2019-03-08T05:16:15.242Z,7.83
2019-03-08T05:18:45.139Z,7.83
2019-03-08T05:21:14.494Z,7.84
2019-03-08T05:23:44.251Z,7.86
2019-03-08T05:26:13.948Z,7.88
2019-03-08T05:28:43.475Z,7.88
2019-03-08T05:31:32.321Z,7.87
2019-03-08T05:34:01.891Z,7.87
2019-03-08T05:36:31.259Z,7.80
2019-03-08T05:42:39.750Z,7.78
2019-03-08T05:45:21.353Z,7.82
2019-03-08T05:47:51.013Z,7.82
2019-03-08T05:50:20.354Z,7.79
2019-03-08T05:52:50.005Z,7.70
2019-03-08T05:55:19.347Z,7.70
2019-03-08T05:57:59.419Z,7.64
2019-03-08T06:03:25.462Z,7.64
2019-03-08T06:05:55.460Z,7.61
2019-03-08T06:08:25.118Z,7.61
2019-03-08T06:10:54.468Z,7.58
2019-03-08T06:13:24.506Z,7.57
2019-03-08T06:15:54.058Z,7.55
2019-03-08T06:18:23.420Z,7.52
2019-03-08T06:23:44.292Z,7.55
2019-03-08T06:26:21.047Z,7.57
2019-03-08T06:28:50.404Z,7.57
2019-03-08T06:31:19.751Z,7.58
2019-03-08T06:33:49.160Z,7.61
2019-03-08T06:36:25.667Z,7.55
2019-03-08T06:38:55.296Z,7.52
2019-03-08T06:41:24.643Z,7.52
2019-03-08T06:44:06.330Z,7.53
2019-03-08T06:46:48.195Z,7.51
2019-03-08T06:49:29.994Z,7.51
2019-03-08T06:52:00.901Z,7.54
2019-03-08T06:54:35.606Z,7.57
2019-03-08T06:57:05.260Z,7.59
2019-03-08T07:02:31.445Z,7.65
2019-03-08T07:05:08.320Z,7.62
2019-03-08T07:07:37.681Z,7.63
2019-03-08T07:13:35.667Z,7.65
2019-03-08T07:16:12.858Z,7.62
2019-03-08T07:18:41.880Z,7.62
2019-03-08T07:24:11.468Z,7.76
2019-03-08T07:26:59.951Z,7.78
2019-03-08T07:32:48.544Z,7.84
2019-03-08T07:35:37.019Z,7.85
2019-03-08T07:41:21.488Z,7.86
2019-03-08T07:44:09.988Z,7.88
2019-03-08T07:46:58.471Z,7.88
2019-03-08T07:49:47.028Z,7.81
2019-03-08T07:52:28.325Z,7.72
2019-03-08T07:55:16.836Z,7.72
2019-03-08T07:58:05.864Z,7.71
2019-03-08T08:01:13.973Z,7.71
2019-03-08T08:04:02.755Z,7.71
2019-03-08T08:10:00.889Z,7.84
2019-03-08T08:15:59.461Z,7.90
2019-03-08T08:18:47.956Z,7.90
2019-03-08T08:27:32.059Z,8.13
2019-03-08T08:33:30.349Z,8.60
2019-03-08T08:38:58.860Z,8.79
2019-03-08T08:41:48.952Z,8.99
2019-03-08T08:44:37.796Z,9.09
2019-03-08T08:53:41.124Z,8.84
2019-03-08T08:56:49.175Z,8.82
2019-03-08T08:59:37.866Z,8.90
2019-03-08T09:02:26.907Z,8.90
2019-03-08T09:05:22.322Z,8.87
2019-03-08T09:08:10.800Z,8.67
2019-03-08T09:13:40.145Z,8.10
2019-03-08T09:16:28.937Z,7.60
2019-03-08T09:19:17.423Z,7.17
2019-03-08T09:22:05.996Z,6.96
2019-03-08T09:27:35.214Z,6.86
2019-03-08T09:38:59.840Z,7.47
2019-03-08T09:41:48.313Z,7.70
2019-03-08T09:44:56.272Z,8.08
2019-03-08T09:47:39.617Z,8.61
2019-03-08T09:54:02.468Z,8.91
2019-03-08T09:59:31.297Z,8.92
2019-03-08T10:02:20.064Z,9.01
2019-03-08T10:05:08.822Z,9.05
2019-03-08T10:07:57.299Z,9.06
2019-03-08T10:10:47.131Z,9.16
2019-03-08T10:16:31.547Z,9.48
2019-03-08T10:19:20.074Z,9.72
2019-03-08T10:22:08.559Z,9.98
2019-03-08T10:24:57.136Z,10.34
2019-03-08T10:30:41.227Z,10.81
2019-03-08T10:33:21.759Z,10.80
2019-03-08T10:36:10.304Z,10.87
2019-03-08T10:38:59.372Z,10.94
2019-03-08T10:41:48.170Z,10.98
2019-03-08T10:44:36.650Z,10.84
2019-03-08T10:47:25.273Z,10.80
2019-03-08T10:50:13.776Z,10.83
2019-03-08T10:59:10.195Z,10.21
2019-03-08T11:01:59.272Z,10.21
2019-03-08T11:05:01.737Z,10.39
2019-03-08T11:07:51.473Z,10.39
2019-03-08T11:13:42.932Z,10.16
2019-03-08T11:16:31.499Z,10.06
2019-03-08T11:19:39.634Z,10.07
2019-03-08T11:22:40.370Z,10.07
2019-03-08T11:25:41.370Z,10.07
2019-03-08T11:28:29.875Z,10.02
2019-03-08T11:45:49.099Z,10.38
2019-03-08T11:48:37.847Z,10.52
2019-03-08T11:51:26.532Z,10.54
2019-03-08T11:57:49.261Z,10.76
2019-03-08T12:00:37.741Z,11.29
2019-03-08T12:09:02.792Z,10.98
2019-03-08T12:11:52.947Z,10.72
2019-03-08T12:17:22.078Z,10.50
2019-03-08T12:25:47.831Z,10.49
2019-03-08T12:34:17.939Z,10.83
2019-03-08T12:37:06.634Z,10.80
2019-03-08T12:42:35.046Z,10.80
2019-03-08T12:48:43.675Z,10.71
2019-03-08T12:51:32.168Z,10.67
2019-03-08T12:54:20.663Z,10.66
2019-03-08T12:57:09.541Z,10.53
2019-03-08T12:59:58.020Z,10.51
2019-03-08T13:02:48.079Z,10.92
2019-03-08T13:08:32.802Z,11.31
2019-03-08T13:11:02.431Z,11.55
2019-03-08T13:13:43.904Z,11.59
2019-03-08T13:16:13.558Z,11.63
2019-03-08T13:18:42.934Z,11.95
2019-03-08T13:21:31.985Z,12.29
2019-03-08T13:24:01.663Z,12.60
2019-03-08T13:26:31.100Z,12.71
2019-03-08T13:29:00.863Z,12.68
2019-03-08T13:31:30.229Z,12.55
2019-03-08T13:33:59.643Z,12.33
2019-03-08T13:36:29.269Z,12.17
2019-03-08T13:38:58.648Z,12.06
2019-03-08T13:41:48.351Z,11.70
2019-03-08T13:44:17.826Z,11.70
2019-03-08T13:46:47.180Z,11.47
2019-03-08T13:49:16.691Z,11.38
2019-03-08T13:51:46.045Z,11.33
2019-03-08T13:54:15.710Z,11.24
2019-03-08T13:59:34.053Z,10.90
2019-03-08T14:02:03.412Z,10.80
2019-03-08T14:04:33.126Z,10.75
2019-03-08T14:07:02.783Z,10.76
2019-03-08T14:09:32.185Z,10.75
2019-03-08T14:12:01.813Z,10.79
2019-03-08T14:14:31.360Z,10.79
2019-03-08T14:17:00.978Z,10.82
2019-03-08T14:19:30.353Z,11.11
2019-03-08T14:21:59.956Z,11.50
2019-03-08T14:24:29.712Z,11.79
2019-03-08T14:26:59.389Z,11.92
2019-03-08T14:32:44.637Z,11.79
2019-03-08T14:35:14.097Z,11.86
2019-03-08T14:37:43.456Z,12.05
2019-03-08T14:48:47.533Z,11.60
2019-03-08T14:51:17.490Z,11.42
2019-03-08T14:54:00.827Z,11.39
2019-03-08T14:56:35.903Z,11.24
2019-03-08T14:59:22.261Z,11.11
2019-03-08T15:01:51.967Z,11.12
2019-03-08T15:04:21.322Z,11.36
2019-03-08T15:06:51.031Z,11.63
2019-03-08T15:09:20.386Z,11.99
2019-03-08T15:11:50.049Z,12.06
2019-03-08T15:14:19.419Z,11.88
2019-03-08T15:16:48.803Z,11.63
2019-03-08T15:19:18.175Z,11.44
2019-03-08T15:21:48.740Z,11.31
2019-03-08T15:24:24.326Z,11.16
2019-03-08T15:26:53.996Z,11.05
2019-03-08T15:29:23.353Z,10.95
2019-03-08T15:31:53.189Z,10.82
2019-03-08T15:34:22.538Z,10.70
2019-03-08T15:36:52.136Z,10.67
2019-03-08T15:39:21.490Z,10.67
2019-03-08T15:41:51.389Z,10.65
2019-03-08T15:44:20.829Z,10.72
2019-03-08T15:46:50.283Z,10.79
2019-03-08T15:49:19.636Z,10.75
2019-03-08T15:51:49.319Z,10.68
2019-03-08T15:54:18.671Z,10.62
2019-03-08T15:56:48.359Z,10.57
2019-03-08T15:59:17.716Z,10.29
2019-03-08T16:05:40.490Z,9.64
2019-03-08T16:08:09.839Z,9.44
2019-03-08T16:10:39.549Z,9.43
2019-03-08T16:13:08.976Z,9.46
2019-03-08T16:15:38.636Z,9.54
2019-03-08T16:18:08.365Z,9.58
2019-03-08T16:20:58.541Z,9.57
2019-03-08T16:23:29.301Z,9.57
2019-03-08T16:25:58.702Z,9.62
2019-03-08T16:28:29.709Z,9.58
2019-03-08T16:31:21.791Z,9.57
2019-03-08T16:34:13.939Z,9.58
2019-03-08T16:39:57.977Z,9.57
2019-03-08T16:42:46.575Z,9.68
2019-03-08T16:45:36.547Z,9.68
2019-03-08T16:51:03.755Z,9.83
2019-03-08T16:53:54.090Z,9.79
2019-03-08T16:56:51.915Z,9.76
2019-03-08T16:59:40.622Z,9.76
2019-03-08T17:05:08.015Z,9.74
2019-03-08T17:07:56.961Z,9.70
2019-03-08T17:10:45.734Z,9.67
2019-03-08T17:13:46.063Z,9.66
2019-03-08T17:22:30.981Z,9.65
2019-03-08T17:25:19.797Z,9.66
2019-03-08T17:36:49.065Z,9.56
2019-03-08T17:39:35.118Z,9.49
2019-03-08T17:42:16.621Z,9.43
2019-03-08T17:48:01.844Z,9.35
2019-03-08T17:50:50.330Z,9.26
2019-03-08T17:53:38.815Z,9.16
2019-03-08T17:56:27.289Z,9.13
2019-03-08T17:59:26.434Z,8.98
2019-03-08T18:02:14.983Z,8.89
2019-03-08T18:05:03.460Z,8.89
2019-03-08T18:07:52.241Z,8.87
2019-03-08T18:10:50.997Z,8.75
2019-03-08T18:16:35.344Z,8.70
2019-03-08T18:25:38.727Z,8.61
2019-03-08T18:31:22.590Z,8.52
2019-03-08T18:34:11.093Z,8.68
2019-03-08T18:36:59.808Z,8.84
2019-03-08T18:42:28.180Z,8.55
2019-03-08T18:45:16.975Z,8.55
2019-03-08T18:48:05.501Z,8.51
2019-03-08T18:50:54.278Z,8.43
2019-03-08T18:59:31.218Z,8.25
2019-03-08T19:02:18.672Z,8.25
2019-03-08T19:07:58.428Z,8.18
2019-03-08T19:10:57.691Z,8.15
2019-03-08T19:13:46.288Z,8.08
2019-03-08T19:16:35.073Z,8.08
2019-03-08T19:19:23.571Z,8.04
2019-03-08T19:30:20.887Z,7.95
2019-03-08T19:33:09.366Z,7.95
2019-03-08T19:35:58.489Z,7.98
2019-03-08T19:38:47.324Z,7.95
2019-03-08T19:41:36.095Z,7.95
2019-03-08T19:44:24.598Z,7.90
2019-03-08T19:47:13.201Z,7.86
2019-03-08T19:50:02.014Z,7.82
2019-03-08T19:52:50.885Z,7.77
2019-03-08T19:55:39.400Z,7.76
2019-03-08T19:58:27.902Z,7.77
2019-03-08T20:06:52.834Z,7.78
2019-03-08T20:09:41.405Z,7.85
2019-03-08T20:12:30.449Z,7.98
2019-03-08T20:15:19.326Z,8.10
2019-03-08T20:21:03.727Z,8.03
2019-03-08T20:23:52.838Z,7.99
2019-03-08T20:27:00.909Z,8.00
2019-03-08T20:29:49.736Z,8.00
2019-03-08T20:32:57.892Z,7.98
2019-03-08T20:35:59.038Z,8.01
2019-03-08T20:38:47.546Z,8.01
2019-03-08T20:41:36.025Z,7.96
2019-03-08T20:47:05.275Z,7.99
2019-03-08T20:49:34.649Z,8.00
2019-03-08T20:52:04.556Z,8.06
2019-03-08T20:54:40.737Z,8.06
2019-03-08T20:57:10.325Z,8.10
2019-03-08T20:59:39.983Z,8.10
2019-03-08T21:02:19.623Z,8.08
2019-03-08T21:04:49.453Z,8.08
2019-03-08T21:07:18.817Z,8.06
2019-03-08T21:09:48.463Z,8.06
2019-03-08T21:12:17.828Z,8.05
2019-03-08T21:14:47.480Z,8.00
2019-03-08T21:17:34.170Z,7.98
2019-03-08T21:23:37.954Z,7.95
2019-03-08T21:26:19.364Z,7.91
2019-03-08T21:28:48.774Z,7.91
2019-03-08T21:31:18.423Z,7.88
2019-03-08T21:33:47.792Z,7.85
2019-03-08T21:36:17.484Z,7.78
2019-03-08T21:38:59.203Z,7.77
2019-03-08T21:41:39.247Z,7.76
2019-03-08T21:44:28.088Z,7.74
2019-03-08T21:47:07.951Z,7.77
2019-03-08T21:49:39.355Z,7.77
2019-03-08T21:52:27.761Z,7.77
2019-03-08T21:54:57.127Z,7.78
2019-03-08T21:57:26.621Z,7.78
2019-03-08T21:59:55.994Z,7.78
2019-03-08T22:02:25.642Z,7.82
2019-03-08T22:07:33.917Z,7.85
2019-03-08T22:10:33.927Z,7.86
2019-03-08T22:13:03.750Z,7.87
2019-03-08T22:15:33.131Z,7.84
2019-03-08T22:18:03.108Z,7.86
2019-03-08T22:20:32.784Z,7.85
2019-03-08T22:23:02.139Z,7.86
2019-03-08T22:25:31.801Z,7.84
2019-03-08T22:28:01.154Z,7.80
2019-03-08T22:30:31.215Z,7.81
2019-03-08T22:33:00.904Z,7.68
2019-03-08T22:35:36.787Z,7.68
2019-03-08T22:38:07.806Z,7.68
2019-03-08T22:43:16.866Z,7.57
2019-03-08T22:45:46.215Z,7.57
2019-03-08T22:48:28.406Z,7.52
2019-03-08T22:50:58.005Z,7.54
2019-03-08T22:53:27.351Z,7.54
2019-03-08T22:55:56.885Z,7.53
2019-03-08T22:58:26.238Z,7.53
2019-03-08T23:04:16.878Z,7.53
2019-03-08T23:06:46.851Z,7.54
2019-03-08T23:12:44.611Z,7.56
2019-03-08T23:15:26.310Z,7.57
2019-03-08T23:17:55.966Z,7.57
2019-03-08T23:20:25.315Z,7.62
2019-03-08T23:22:54.995Z,7.68
2019-03-08T23:25:24.344Z,7.68
2019-03-08T23:28:25.250Z,7.76
2019-03-08T23:31:14.092Z,7.76
2019-03-08T23:36:40.239Z,7.88
2019-03-08T23:39:09.596Z,7.90
2019-03-08T23:41:40.581Z,7.93
2019-03-08T23:44:20.035Z,8.00
2019-03-08T23:46:49.402Z,8.00
2019-03-08T23:49:39.552Z,8.03
2019-03-08T23:52:09.061Z,8.02
2019-03-08T23:54:38.707Z,8.02
2019-03-08T23:57:27.892Z,8.06
2019-03-08T23:59:57.512Z,8.06
